createdAt,value
2023-01-30T00:03:26.036Z,3.20
2023-01-30T00:08:29.915Z,3.33
2023-01-30T00:13:35.616Z,3.53
2023-01-30T00:18:41.059Z,3.25
2023-01-30T00:23:45.770Z,3.30
2023-01-30T00:28:51.199Z,3.15
2023-01-30T00:33:54.951Z,3.40
2023-01-30T00:39:00.551Z,3.72
2023-01-30T00:44:23.050Z,3.30
2023-01-30T00:49:26.800Z,3.03
2023-01-30T00:54:30.522Z,3.42
2023-01-30T00:59:36.875Z,3.17
2023-01-30T01:04:43.447Z,3.42
2023-01-30T01:09:48.090Z,3.10
2023-01-30T01:14:53.246Z,3.42
2023-01-30T01:19:57.014Z,3.30
2023-01-30T01:25:00.662Z,3.13
2023-01-30T01:30:07.095Z,3.13
2023-01-30T01:35:12.144Z,3.35
2023-01-30T01:40:41.003Z,3.13
2023-01-30T01:45:47.064Z,3.00
2023-01-30T01:50:56.705Z,3.25
2023-01-30T01:56:02.262Z,2.90
2023-01-30T02:01:08.841Z,3.20
2023-01-30T02:06:15.897Z,2.90
2023-01-30T02:11:28.214Z,3.00
2023-01-30T02:16:33.599Z,3.00
2023-01-30T02:22:28.874Z,2.92
2023-01-30T02:28:12.641Z,3.00
2023-01-30T02:33:25.717Z,3.00
2023-01-30T02:38:41.075Z,2.80
2023-01-30T02:43:56.325Z,2.95
2023-01-30T02:49:09.698Z,2.92
2023-01-30T02:54:16.941Z,2.80
2023-01-30T02:59:29.775Z,2.80
2023-01-30T03:05:10.057Z,2.78
2023-01-30T03:10:28.357Z,2.83
2023-01-30T03:15:43.755Z,2.90
2023-01-30T03:20:49.377Z,2.63
2023-01-30T03:25:53.151Z,2.78
2023-01-30T03:30:57.036Z,2.80
2023-01-30T03:36:02.310Z,2.60
2023-01-30T03:41:07.003Z,2.58
2023-01-30T03:46:11.465Z,2.50
2023-01-30T03:51:17.710Z,2.78
2023-01-30T03:56:21.564Z,2.70
2023-01-30T04:01:26.176Z,2.53
2023-01-30T04:06:31.458Z,2.65
2023-01-30T04:11:35.895Z,2.75
2023-01-30T04:16:39.903Z,2.67
2023-01-30T04:22:23.224Z,2.50
2023-01-30T04:27:27.143Z,2.53
2023-01-30T04:32:49.147Z,2.80
2023-01-30T04:37:54.296Z,2.50
2023-01-30T04:42:58.105Z,2.60
2023-01-30T04:48:18.071Z,2.50
2023-01-30T04:53:25.223Z,2.50
2023-01-30T04:58:29.127Z,2.30
2023-01-30T05:03:32.892Z,2.47
2023-01-30T05:08:38.089Z,2.30
2023-01-30T05:13:46.465Z,2.38
2023-01-30T05:18:50.763Z,2.33
2023-01-30T05:23:56.638Z,2.10
2023-01-30T05:29:00.453Z,2.20
2023-01-30T05:34:04.118Z,2.20
2023-01-30T05:39:09.272Z,2.30
2023-01-30T05:44:13.025Z,2.30
2023-01-30T05:49:17.126Z,2.17
2023-01-30T05:54:22.174Z,2.17
2023-01-30T05:59:25.803Z,2.05
2023-01-30T06:04:29.671Z,2.10
2023-01-30T06:09:34.738Z,1.98
2023-01-30T06:14:38.402Z,2.20
2023-01-30T06:19:42.392Z,2.00
2023-01-30T06:24:47.547Z,1.88
2023-01-30T06:29:51.173Z,2.00
2023-01-30T06:34:54.870Z,2.10
2023-01-30T06:39:59.907Z,1.75
2023-01-30T06:45:03.823Z,1.92
2023-01-30T06:50:08.075Z,1.98
2023-01-30T06:55:17.522Z,2.00
2023-01-30T07:00:23.150Z,1.90
2023-01-30T07:05:28.919Z,1.90
2023-01-30T07:10:35.480Z,1.88
2023-01-30T07:15:39.450Z,1.83
2023-01-30T07:20:43.368Z,1.70
2023-01-30T07:25:48.473Z,2.15
2023-01-30T07:30:52.936Z,1.52
2023-01-30T07:35:57.528Z,1.70
2023-01-30T07:41:02.585Z,1.70
2023-01-30T07:46:06.820Z,1.67
2023-01-30T07:51:10.508Z,1.70
2023-01-30T07:56:18.659Z,1.80
2023-01-30T08:06:26.284Z,1.80
2023-01-30T08:11:31.377Z,1.58
2023-01-30T08:16:35.250Z,1.85
2023-01-30T08:21:38.927Z,1.50
2023-01-30T08:26:44.055Z,1.80
2023-01-30T08:31:49.775Z,1.80
2023-01-30T08:36:53.713Z,1.48
2023-01-30T08:41:58.817Z,1.60
2023-01-30T08:47:02.530Z,1.65
2023-01-30T08:52:06.277Z,1.60
2023-01-30T08:57:11.519Z,1.60
2023-01-30T09:02:15.498Z,1.60
2023-01-30T09:07:19.263Z,1.35
2023-01-30T09:12:24.505Z,1.42
2023-01-30T09:17:28.267Z,1.60
2023-01-30T09:22:32.105Z,1.50
2023-01-30T09:27:37.633Z,1.30
2023-01-30T09:32:41.258Z,1.33
2023-01-30T09:37:51.776Z,1.40
2023-01-30T09:43:35.233Z,1.40
2023-01-30T09:48:49.360Z,1.50
2023-01-30T09:54:18.195Z,1.52
2023-01-30T09:59:33.777Z,1.50
2023-01-30T10:04:51.680Z,1.30
2023-01-30T10:10:15.448Z,1.30
2023-01-30T10:15:49.118Z,1.40
2023-01-30T10:21:05.727Z,1.40
2023-01-30T10:26:14.116Z,1.30
2023-01-30T10:31:23.888Z,1.48
2023-01-30T10:36:40.944Z,1.52
2023-01-30T10:41:56.801Z,1.63
2023-01-30T10:47:46.620Z,1.67
2023-01-30T10:53:01.344Z,1.50
2023-01-30T10:58:18.192Z,1.67
2023-01-30T11:03:34.739Z,2.00
2023-01-30T11:08:38.594Z,1.90
2023-01-30T11:13:42.226Z,1.73
2023-01-30T11:19:22.632Z,1.92
2023-01-30T11:24:19.933Z,1.80
2023-01-30T11:29:31.336Z,2.10
2023-01-30T11:34:36.439Z,2.03
2023-01-30T11:39:50.133Z,1.92
2023-01-30T11:45:15.550Z,1.70
2023-01-30T11:50:26.967Z,1.80
2023-01-30T11:55:49.943Z,1.70
2023-01-30T12:01:05.459Z,1.80
2023-01-30T12:06:10.578Z,1.67
2023-01-30T12:11:42.367Z,1.95
2023-01-30T12:17:01.606Z,1.80
2023-01-30T12:22:24.358Z,1.77
2023-01-30T12:27:50.206Z,1.80
2023-01-30T12:38:28.476Z,1.60
2023-01-30T12:43:59.692Z,1.80
2023-01-30T12:49:40.193Z,1.70
2023-01-30T12:54:58.327Z,1.55
2023-01-30T13:05:36.879Z,1.70
2023-01-30T13:10:51.902Z,1.60
2023-01-30T13:16:07.061Z,1.55
2023-01-30T13:21:20.697Z,2.03
2023-01-30T13:26:34.448Z,1.55
2023-01-30T13:31:43.399Z,1.42
2023-01-30T13:36:53.728Z,1.60
2023-01-30T13:42:01.116Z,1.70
2023-01-30T13:47:26.315Z,1.70
2023-01-30T13:52:37.947Z,1.60
2023-01-30T13:57:56.164Z,1.40
2023-01-30T14:08:48.170Z,1.80
2023-01-30T14:13:55.829Z,2.00
2023-01-30T14:18:59.601Z,1.97
2023-01-30T14:24:06.629Z,1.80
2023-01-30T14:29:11.781Z,1.70
2023-01-30T14:35:03.742Z,1.63
2023-01-30T14:40:39.940Z,1.73
2023-01-30T14:45:51.485Z,2.10
2023-01-30T14:51:23.158Z,1.80
2023-01-30T14:56:49.493Z,1.70
2023-01-30T15:02:25.577Z,1.75
2023-01-30T15:07:33.992Z,1.45
2023-01-30T15:18:39.869Z,1.70
2023-01-30T15:24:17.839Z,1.60
2023-01-30T15:30:17.952Z,1.48
2023-01-30T15:35:30.171Z,1.70
2023-01-30T15:40:34.248Z,1.63
2023-01-30T15:45:53.336Z,1.50
2023-01-30T15:51:01.095Z,1.70
2023-01-30T15:56:10.428Z,1.50
2023-01-30T16:01:21.787Z,1.70
2023-01-30T16:06:33.782Z,1.55
2023-01-30T16:11:41.116Z,1.50
2023-01-30T16:16:50.291Z,1.58
2023-01-30T16:22:00.198Z,1.52
2023-01-30T16:27:08.703Z,1.50
2023-01-30T16:32:15.297Z,1.48
2023-01-30T16:37:31.869Z,1.48
2023-01-30T16:42:35.777Z,2.00
2023-01-30T16:47:40.124Z,2.00
2023-01-30T16:52:51.844Z,1.70
2023-01-30T16:57:59.611Z,1.75
2023-01-30T17:03:07.507Z,1.65
2023-01-30T17:08:49.404Z,1.88
2023-01-30T17:14:22.548Z,1.60
2023-01-30T17:19:26.269Z,1.60
2023-01-30T17:24:31.583Z,1.73
2023-01-30T17:29:42.891Z,1.65
2023-01-30T17:34:47.147Z,1.83
2023-01-30T17:39:52.362Z,1.52
2023-01-30T17:44:56.165Z,1.55
2023-01-30T17:49:59.920Z,1.80
2023-01-30T17:55:05.552Z,1.42
2023-01-30T18:00:18.124Z,1.40
2023-01-30T18:05:23.249Z,1.48
2023-01-30T18:10:28.933Z,1.77
2023-01-30T18:15:32.689Z,1.85
2023-01-30T18:20:36.432Z,1.98
2023-01-30T18:25:41.586Z,1.95
2023-01-30T18:30:45.385Z,1.75
2023-01-30T18:35:49.101Z,1.70
2023-01-30T18:40:54.222Z,1.80
2023-01-30T18:46:06.550Z,1.65
2023-01-30T18:51:14.766Z,1.70
2023-01-30T18:56:22.718Z,1.90
2023-01-30T19:01:28.960Z,1.90
2023-01-30T19:06:33.257Z,1.80
2023-01-30T19:11:55.679Z,1.70
2023-01-30T19:16:59.414Z,1.60
2023-01-30T19:22:03.313Z,1.92
2023-01-30T19:27:09.927Z,1.77
2023-01-30T19:32:13.683Z,1.70
2023-01-30T19:37:17.342Z,1.58
2023-01-30T19:42:22.420Z,1.65
2023-01-30T19:47:26.045Z,1.90
2023-01-30T19:52:29.740Z,2.00
2023-01-30T19:57:35.854Z,1.90
2023-01-30T20:02:39.630Z,2.05
2023-01-30T20:07:44.842Z,2.00
2023-01-30T20:12:50.319Z,2.10
2023-01-30T20:17:54.100Z,2.00
2023-01-30T20:22:57.809Z,2.22
2023-01-30T20:28:03.156Z,1.80
2023-01-30T20:33:07.027Z,2.05
2023-01-30T20:38:10.988Z,1.90
2023-01-30T20:43:17.626Z,1.98
2023-01-30T20:48:21.443Z,1.83
2023-01-30T20:53:25.272Z,2.00
2023-01-30T20:58:31.544Z,2.17
2023-01-30T21:03:35.336Z,1.83
2023-01-30T21:08:40.523Z,2.22
2023-01-30T21:13:46.064Z,2.10
2023-01-30T21:18:53.562Z,2.30
2023-01-30T21:24:08.499Z,2.60
2023-01-30T21:29:16.426Z,2.90
2023-01-30T21:34:20.295Z,3.00
2023-01-30T21:39:41.506Z,3.53
2023-01-30T21:44:46.756Z,3.42
2023-01-30T21:49:55.012Z,3.47
2023-01-30T22:00:04.337Z,3.55
2023-01-30T22:05:11.010Z,3.60
2023-01-30T22:10:14.637Z,3.70
2023-01-30T22:15:20.799Z,3.90
2023-01-30T22:20:24.717Z,3.80
2023-01-30T22:25:28.419Z,3.72
2023-01-30T22:30:33.525Z,3.88
2023-01-30T22:35:37.340Z,4.47
2023-01-30T22:40:40.971Z,3.90
2023-01-30T22:45:46.175Z,3.75
2023-01-30T22:51:01.354Z,3.83
2023-01-30T22:56:22.433Z,4.30
2023-01-30T23:01:37.301Z,4.20
2023-01-30T23:06:41.974Z,3.90
2023-01-30T23:12:10.023Z,3.92
2023-01-30T23:17:32.691Z,3.83
2023-01-30T23:22:36.756Z,3.80
2023-01-30T23:27:40.389Z,4.05
2023-01-30T23:32:45.542Z,3.70
2023-01-30T23:38:06.690Z,3.55
2023-01-30T23:43:11.737Z,3.90
2023-01-30T23:48:16.935Z,3.80
2023-01-30T23:53:20.691Z,3.88
2023-01-30T23:58:24.404Z,3.72
